createdAt,value
2023-04-30T00:00:19.986Z,18.10
2023-04-30T00:02:47.876Z,18.10
2023-04-30T00:05:15.982Z,18.00
2023-04-30T00:07:43.797Z,18.00
2023-04-30T00:10:13.100Z,18.00
2023-04-30T00:12:40.961Z,18.00
2023-04-30T00:15:10.034Z,18.00
2023-04-30T00:17:37.904Z,18.00
2023-04-30T00:20:08.252Z,18.00
2023-04-30T00:22:36.157Z,18.00
2023-04-30T00:25:04.069Z,18.00
2023-04-30T00:27:33.321Z,18.00
2023-04-30T00:30:01.180Z,18.00
2023-04-30T00:32:29.044Z,18.00
2023-04-30T00:34:56.878Z,17.90
2023-04-30T00:37:24.766Z,17.90
2023-04-30T00:39:53.058Z,17.90
2023-04-30T00:42:21.053Z,17.90
2023-04-30T00:44:50.215Z,17.90
2023-04-30T00:47:18.288Z,17.90
2023-04-30T00:49:46.586Z,17.90
2023-04-30T00:52:15.125Z,17.90
2023-04-30T00:54:43.168Z,17.90
2023-04-30T00:57:14.668Z,17.80
2023-04-30T00:59:43.230Z,17.80
2023-04-30T01:02:13.602Z,17.80
2023-04-30T01:04:41.645Z,17.80
2023-04-30T01:07:09.578Z,17.80
2023-04-30T01:09:37.760Z,17.80
2023-04-30T01:12:24.680Z,17.70
2023-04-30T01:15:05.158Z,17.70
2023-04-30T01:17:39.794Z,17.70
2023-04-30T01:20:10.671Z,17.70
2023-04-30T01:22:52.852Z,17.70
2023-04-30T01:25:55.064Z,17.60
2023-04-30T01:28:25.599Z,17.60
2023-04-30T01:30:54.359Z,17.60
2023-04-30T01:33:22.292Z,17.60
2023-04-30T01:36:23.743Z,17.60
2023-04-30T01:39:11.946Z,17.50
2023-04-30T01:41:55.723Z,17.50
2023-04-30T01:44:44.052Z,17.50
2023-04-30T01:47:29.824Z,17.50
2023-04-30T01:50:13.769Z,17.50
2023-04-30T01:52:47.768Z,17.50
2023-04-30T01:55:22.521Z,17.40
2023-04-30T01:57:58.729Z,17.40
2023-04-30T02:00:30.430Z,17.40
2023-04-30T02:02:59.394Z,17.40
2023-04-30T02:05:27.577Z,17.40
2023-04-30T02:07:57.104Z,17.40
2023-04-30T02:10:27.703Z,17.30
2023-04-30T02:12:55.677Z,17.30
2023-04-30T02:15:23.870Z,17.30
2023-04-30T02:17:53.282Z,17.30
2023-04-30T02:20:21.646Z,17.30
2023-04-30T02:22:49.514Z,17.30
2023-04-30T02:25:17.665Z,17.30
2023-04-30T02:27:45.580Z,17.20
2023-04-30T02:30:13.522Z,17.20
2023-04-30T02:32:41.448Z,17.20
2023-04-30T02:35:10.926Z,17.20
2023-04-30T02:37:39.217Z,17.20
2023-04-30T02:40:09.284Z,17.20
2023-04-30T02:42:37.208Z,17.10
2023-04-30T02:45:05.997Z,17.10
2023-04-30T02:47:33.968Z,17.10
2023-04-30T02:50:01.867Z,17.10
2023-04-30T02:52:31.032Z,17.10
2023-04-30T02:54:58.996Z,17.00
2023-04-30T02:57:27.190Z,17.00
2023-04-30T02:59:55.417Z,17.00
2023-04-30T03:02:24.013Z,16.90
2023-04-30T03:04:52.456Z,17.00
2023-04-30T03:07:20.478Z,17.00
2023-04-30T03:09:49.726Z,16.90
2023-04-30T03:12:17.558Z,16.90
2023-04-30T03:14:45.427Z,16.90
2023-04-30T03:17:14.749Z,16.90
2023-04-30T03:19:42.582Z,16.90
2023-04-30T03:22:11.473Z,16.80
2023-04-30T03:24:39.306Z,16.80
2023-04-30T03:27:08.514Z,16.80
2023-04-30T03:29:36.339Z,16.80
2023-04-30T03:32:04.530Z,16.80
2023-04-30T03:34:32.509Z,16.70
2023-04-30T03:37:02.420Z,16.70
2023-04-30T03:39:30.342Z,16.70
2023-04-30T03:41:58.226Z,16.70
2023-04-30T03:44:27.468Z,16.70
2023-04-30T03:46:55.475Z,16.60
2023-04-30T03:49:23.313Z,16.60
2023-04-30T03:51:51.180Z,16.60
2023-04-30T03:54:19.019Z,16.60
2023-04-30T03:56:46.969Z,16.50
2023-04-30T03:59:15.018Z,16.50
2023-04-30T04:01:44.690Z,16.50
2023-04-30T04:04:13.325Z,16.50
2023-04-30T04:06:41.361Z,16.50
2023-04-30T04:09:09.415Z,16.40
2023-04-30T04:11:37.412Z,16.40
2023-04-30T04:14:05.331Z,16.40
2023-04-30T04:16:33.392Z,16.40
2023-04-30T04:19:02.720Z,16.40
2023-04-30T04:21:31.255Z,16.40
2023-04-30T04:23:59.292Z,16.30
2023-04-30T04:26:28.968Z,16.30
2023-04-30T04:28:56.941Z,16.30
2023-04-30T04:31:25.412Z,16.30
2023-04-30T04:33:58.249Z,16.30
2023-04-30T04:36:28.860Z,16.30
2023-04-30T04:39:01.886Z,16.30
2023-04-30T04:41:30.768Z,16.30
2023-04-30T04:43:58.933Z,16.20
2023-04-30T04:46:28.389Z,16.20
2023-04-30T04:48:56.784Z,16.20
2023-04-30T04:51:25.094Z,16.20
2023-04-30T04:53:54.332Z,16.20
2023-04-30T04:56:22.307Z,16.20
2023-04-30T04:58:50.144Z,16.20
2023-04-30T05:01:18.046Z,16.20
2023-04-30T05:03:48.769Z,16.20
2023-04-30T05:06:16.814Z,16.20
2023-04-30T05:08:44.780Z,16.20
2023-04-30T05:11:15.638Z,16.20
2023-04-30T05:13:43.954Z,16.20
2023-04-30T05:16:17.411Z,16.20
2023-04-30T05:18:48.148Z,16.20
2023-04-30T05:21:16.123Z,16.30
2023-04-30T05:23:44.762Z,16.30
2023-04-30T05:26:13.948Z,16.30
2023-04-30T05:28:42.209Z,16.30
2023-04-30T05:31:10.153Z,16.30
2023-04-30T05:33:37.994Z,16.40
2023-04-30T05:36:07.019Z,16.40
2023-04-30T05:38:34.959Z,16.40
2023-04-30T05:41:02.918Z,16.40
2023-04-30T05:43:32.467Z,16.40
2023-04-30T05:46:00.403Z,16.50
2023-04-30T05:48:28.501Z,16.50
2023-04-30T05:50:56.329Z,16.50
2023-04-30T05:53:24.209Z,16.50
2023-04-30T05:55:52.225Z,16.60
2023-04-30T05:58:20.078Z,16.60
2023-04-30T06:00:51.968Z,16.60
2023-04-30T06:03:20.212Z,16.60
2023-04-30T06:05:48.760Z,16.70
2023-04-30T06:08:16.715Z,16.70
2023-04-30T06:10:44.739Z,16.70
2023-04-30T06:13:12.588Z,16.80
2023-04-30T06:15:40.496Z,16.80
2023-04-30T06:18:09.753Z,16.80
2023-04-30T06:20:37.590Z,16.90
2023-04-30T06:23:05.516Z,16.90
2023-04-30T06:25:33.414Z,16.90
2023-04-30T06:28:01.560Z,17.00
2023-04-30T06:30:31.409Z,17.00
2023-04-30T06:32:59.341Z,17.00
2023-04-30T06:35:28.658Z,17.00
2023-04-30T06:37:56.521Z,17.10
2023-04-30T06:40:24.390Z,17.10
2023-04-30T06:42:52.208Z,17.10
2023-04-30T06:45:20.145Z,17.10
2023-04-30T06:47:48.092Z,17.20
2023-04-30T06:50:16.647Z,17.20
2023-04-30T06:52:45.849Z,17.20
2023-04-30T06:55:13.719Z,17.20
2023-04-30T06:57:41.616Z,17.20
2023-04-30T07:00:10.486Z,17.30
2023-04-30T07:02:38.672Z,17.30
2023-04-30T07:05:07.320Z,17.30
2023-04-30T07:07:35.413Z,17.30
2023-04-30T07:10:05.410Z,17.30
2023-04-30T07:12:33.298Z,17.30
2023-04-30T07:15:01.537Z,17.30
2023-04-30T07:17:29.745Z,17.40
2023-04-30T07:19:57.646Z,17.40
2023-04-30T07:22:25.552Z,17.40
2023-04-30T07:24:53.541Z,17.40
2023-04-30T07:27:22.805Z,17.40
2023-04-30T07:29:50.763Z,17.40
2023-04-30T07:32:18.627Z,17.40
2023-04-30T07:34:46.511Z,17.40
2023-04-30T07:37:14.688Z,17.40
2023-04-30T07:39:42.573Z,17.40
2023-04-30T07:42:10.413Z,17.40
2023-04-30T07:44:39.728Z,17.40
2023-04-30T07:47:07.651Z,17.40
2023-04-30T07:49:35.645Z,17.40
2023-04-30T07:52:03.622Z,17.40
2023-04-30T07:54:31.480Z,17.40
2023-04-30T07:56:59.292Z,17.40
2023-04-30T07:59:27.118Z,17.50
2023-04-30T08:01:56.527Z,17.50
2023-04-30T08:04:24.690Z,17.50
2023-04-30T08:06:52.632Z,17.50
2023-04-30T08:09:20.467Z,17.50
2023-04-30T08:11:48.305Z,17.50
2023-04-30T08:14:16.170Z,17.50
2023-04-30T08:16:44.066Z,17.60
2023-04-30T08:19:13.380Z,17.60
2023-04-30T08:21:41.851Z,17.60
2023-04-30T08:24:09.697Z,17.60
2023-04-30T08:26:37.513Z,17.60
2023-04-30T08:29:05.380Z,17.60
2023-04-30T08:31:33.305Z,17.60
2023-04-30T08:34:01.454Z,17.60
2023-04-30T08:36:30.671Z,17.70
2023-04-30T08:38:58.532Z,17.70
2023-04-30T08:41:28.304Z,17.70
2023-04-30T08:44:02.175Z,17.70
2023-04-30T08:46:33.302Z,17.70
2023-04-30T08:49:01.462Z,17.70
2023-04-30T08:51:34.212Z,17.70
2023-04-30T08:54:02.094Z,17.80
2023-04-30T08:56:31.380Z,17.80
2023-04-30T08:58:59.272Z,17.90
2023-04-30T09:01:29.528Z,17.90
2023-04-30T09:03:57.945Z,18.00
2023-04-30T09:06:27.167Z,18.00
2023-04-30T09:08:56.491Z,18.10
2023-04-30T09:11:26.910Z,18.10
2023-04-30T09:13:57.442Z,18.10
2023-04-30T09:16:26.908Z,18.20
2023-04-30T09:18:56.374Z,18.20
2023-04-30T09:21:35.136Z,18.20
2023-04-30T09:24:06.533Z,18.20
2023-04-30T09:26:37.106Z,18.20
2023-04-30T09:29:08.706Z,18.20
2023-04-30T09:31:38.367Z,18.30
2023-04-30T09:34:07.002Z,18.30
2023-04-30T09:36:35.767Z,18.30
2023-04-30T09:39:14.210Z,18.20
2023-04-30T09:41:43.386Z,18.30
2023-04-30T09:44:28.566Z,18.20
2023-04-30T09:46:59.164Z,18.30
2023-04-30T09:49:27.747Z,18.30
2023-04-30T09:51:57.355Z,18.30
2023-04-30T09:54:30.463Z,18.30
2023-04-30T09:57:01.406Z,18.40
2023-04-30T09:59:31.955Z,18.40
2023-04-30T10:02:01.923Z,18.40
2023-04-30T10:04:33.422Z,18.40
2023-04-30T10:07:06.856Z,18.40
2023-04-30T10:09:45.672Z,18.40
2023-04-30T10:12:19.049Z,18.40
2023-04-30T10:14:56.042Z,18.40
2023-04-30T10:17:28.623Z,18.40
2023-04-30T10:20:04.894Z,18.40
2023-04-30T10:22:35.802Z,18.50
2023-04-30T10:25:06.981Z,18.50
2023-04-30T10:27:36.038Z,18.50
2023-04-30T10:30:04.423Z,18.50
2023-04-30T10:32:42.995Z,18.50
2023-04-30T10:35:20.802Z,18.50
2023-04-30T10:37:56.007Z,18.50
2023-04-30T10:40:28.325Z,18.50
2023-04-30T10:42:56.328Z,18.50
2023-04-30T10:45:37.229Z,18.50
2023-04-30T10:48:06.110Z,18.50
2023-04-30T10:50:34.328Z,18.50
2023-04-30T10:53:06.265Z,18.50
2023-04-30T10:55:47.047Z,18.50
2023-04-30T10:58:31.931Z,18.40
2023-04-30T11:01:08.453Z,18.50
2023-04-30T11:03:38.005Z,18.50
2023-04-30T11:06:14.688Z,18.50
2023-04-30T11:08:46.459Z,18.50
2023-04-30T11:11:21.727Z,18.50
2023-04-30T11:14:01.065Z,18.50
2023-04-30T11:16:31.458Z,18.50
2023-04-30T11:19:10.081Z,18.50
2023-04-30T11:21:42.056Z,18.50
2023-04-30T11:24:09.963Z,18.50
2023-04-30T11:27:07.296Z,18.40
2023-04-30T11:29:36.095Z,18.50
2023-04-30T11:32:05.815Z,18.50
2023-04-30T11:34:36.214Z,18.40
2023-04-30T11:37:04.690Z,18.50
2023-04-30T11:39:37.280Z,18.40
2023-04-30T11:42:05.686Z,18.50
2023-04-30T11:44:35.324Z,18.50
2023-04-30T11:47:03.366Z,18.50
2023-04-30T11:49:32.592Z,18.50
2023-04-30T11:52:00.817Z,18.40
2023-04-30T11:54:32.478Z,18.40
2023-04-30T11:57:04.045Z,18.40
2023-04-30T11:59:41.473Z,18.40
2023-04-30T12:02:11.599Z,18.40
2023-04-30T12:04:43.854Z,18.40
2023-04-30T12:07:11.971Z,18.40
2023-04-30T12:09:53.792Z,18.40
2023-04-30T12:12:28.941Z,18.40
2023-04-30T12:14:59.305Z,18.40
2023-04-30T12:17:34.500Z,18.40
2023-04-30T12:20:02.702Z,18.40
2023-04-30T12:22:30.702Z,18.40
2023-04-30T12:25:02.189Z,18.40
2023-04-30T12:27:31.881Z,18.40
2023-04-30T12:30:08.684Z,18.30
2023-04-30T12:32:42.604Z,18.40
2023-04-30T12:35:16.379Z,18.30
2023-04-30T12:37:45.304Z,18.40
2023-04-30T12:40:14.606Z,18.40
2023-04-30T12:42:44.677Z,18.40
2023-04-30T12:45:14.963Z,18.40
2023-04-30T12:47:43.635Z,18.40
2023-04-30T12:50:12.908Z,18.40
2023-04-30T12:52:41.829Z,18.40
2023-04-30T12:55:18.184Z,18.30
2023-04-30T12:58:06.055Z,18.30
2023-04-30T13:00:49.817Z,18.30
2023-04-30T13:03:21.275Z,18.30
2023-04-30T13:05:51.852Z,18.40
2023-04-30T13:08:21.899Z,18.40
2023-04-30T13:10:50.056Z,18.40
2023-04-30T13:13:20.197Z,18.40
2023-04-30T13:15:49.485Z,18.40
2023-04-30T13:18:17.423Z,18.40
2023-04-30T13:20:45.629Z,18.40
2023-04-30T13:23:13.661Z,18.40
2023-04-30T13:25:42.696Z,18.40
2023-04-30T13:28:10.833Z,18.40
2023-04-30T13:30:39.179Z,18.40
2023-04-30T13:33:08.902Z,18.40
2023-04-30T13:35:36.791Z,18.40
2023-04-30T13:38:04.669Z,18.40
2023-04-30T13:40:32.827Z,18.40
2023-04-30T13:43:00.714Z,18.40
2023-04-30T13:45:28.556Z,18.40
2023-04-30T13:47:56.679Z,18.50
2023-04-30T13:50:26.341Z,18.40
2023-04-30T13:52:54.250Z,18.40
2023-04-30T13:55:22.126Z,18.50
2023-04-30T13:57:50.005Z,18.50
2023-04-30T14:00:19.442Z,18.50
2023-04-30T14:02:47.487Z,18.50
2023-04-30T14:05:15.739Z,18.50
2023-04-30T14:07:44.914Z,18.40
2023-04-30T14:10:12.773Z,18.50
2023-04-30T14:12:40.651Z,18.50
2023-04-30T14:15:09.463Z,18.50
2023-04-30T14:17:37.720Z,18.50
2023-04-30T14:20:07.170Z,18.40
2023-04-30T14:22:38.287Z,18.40
2023-04-30T14:25:10.355Z,18.40
2023-04-30T14:27:38.567Z,18.40
2023-04-30T14:30:08.305Z,18.40
2023-04-30T14:32:36.686Z,18.40
2023-04-30T14:35:05.722Z,18.40
2023-04-30T14:37:33.687Z,18.40
2023-04-30T14:40:02.022Z,18.40
2023-04-30T14:42:31.426Z,18.40
2023-04-30T14:44:59.246Z,18.40
2023-04-30T14:47:28.071Z,18.40
2023-04-30T14:49:58.701Z,18.40
2023-04-30T14:52:26.704Z,18.40
2023-04-30T14:54:54.597Z,18.40
2023-04-30T14:57:23.489Z,18.40
2023-04-30T14:59:55.090Z,18.40
2023-04-30T15:02:23.433Z,18.40
2023-04-30T15:04:51.502Z,18.40
2023-04-30T15:07:19.999Z,18.40
2023-04-30T15:09:47.933Z,18.40
2023-04-30T15:12:15.952Z,18.40
2023-04-30T15:14:43.819Z,18.40
2023-04-30T15:17:13.031Z,18.40
2023-04-30T15:19:40.956Z,18.40
2023-04-30T15:22:09.098Z,18.40
2023-04-30T15:24:37.371Z,18.40
2023-04-30T15:27:05.271Z,18.40
2023-04-30T15:29:33.320Z,18.40
2023-04-30T15:32:01.274Z,18.40
2023-04-30T15:34:31.104Z,18.40
2023-04-30T15:36:59.407Z,18.40
2023-04-30T15:39:27.603Z,18.40
2023-04-30T15:41:55.687Z,18.40
2023-04-30T15:44:23.746Z,18.40
2023-04-30T15:46:52.235Z,18.40
2023-04-30T15:49:21.173Z,18.40
2023-04-30T15:51:52.400Z,18.40
2023-04-30T15:54:20.400Z,18.40
2023-04-30T15:56:48.884Z,18.40
2023-04-30T15:59:18.443Z,18.40
2023-04-30T16:01:47.509Z,18.40
2023-04-30T16:04:15.448Z,18.40
2023-04-30T16:06:43.485Z,18.40
2023-04-30T16:09:13.566Z,18.40
2023-04-30T16:11:41.422Z,18.50
2023-04-30T16:14:09.332Z,18.50
2023-04-30T16:16:37.206Z,18.50
2023-04-30T16:19:07.605Z,18.50
2023-04-30T16:21:38.335Z,18.50
2023-04-30T16:24:06.532Z,18.50
2023-04-30T16:26:36.239Z,18.50
2023-04-30T16:29:05.039Z,18.50
2023-04-30T16:31:33.307Z,18.50
2023-04-30T16:34:02.080Z,18.50
2023-04-30T16:36:30.321Z,18.50
2023-04-30T16:38:58.988Z,18.50
2023-04-30T16:41:26.903Z,18.50
2023-04-30T16:43:56.106Z,18.50
2023-04-30T16:46:24.070Z,18.50
2023-04-30T16:48:51.940Z,18.50
2023-04-30T16:51:19.809Z,18.50
2023-04-30T16:53:47.664Z,18.50
2023-04-30T16:56:15.561Z,18.50
2023-04-30T16:58:43.422Z,18.50
2023-04-30T17:01:12.711Z,18.50
2023-04-30T17:03:40.743Z,18.50
2023-04-30T17:06:09.838Z,18.50
2023-04-30T17:08:38.775Z,18.50
2023-04-30T17:11:07.643Z,18.50
2023-04-30T17:13:37.443Z,18.50
2023-04-30T17:16:06.229Z,18.50
2023-04-30T17:18:35.462Z,18.50
2023-04-30T17:21:03.297Z,18.50
2023-04-30T17:23:31.886Z,18.50
2023-04-30T17:26:01.054Z,18.50
2023-04-30T17:28:28.900Z,18.50
2023-04-30T17:30:56.877Z,18.50
2023-04-30T17:33:26.470Z,18.50
2023-04-30T17:35:56.115Z,18.40
2023-04-30T17:38:24.056Z,18.50
2023-04-30T17:40:53.725Z,18.40
2023-04-30T17:43:21.566Z,18.40
2023-04-30T17:45:51.064Z,18.50
2023-04-30T17:48:18.942Z,18.40
2023-04-30T17:50:47.029Z,18.40
2023-04-30T17:53:19.315Z,18.40
2023-04-30T17:55:47.139Z,18.50
2023-04-30T17:58:15.048Z,18.40
2023-04-30T18:00:44.737Z,18.40
2023-04-30T18:03:13.020Z,18.40
2023-04-30T18:05:42.321Z,18.40
2023-04-30T18:08:10.225Z,18.40
2023-04-30T18:10:39.504Z,18.40
2023-04-30T18:13:07.934Z,18.40
2023-04-30T18:15:35.789Z,18.40
2023-04-30T18:18:03.676Z,18.40
2023-04-30T18:20:31.604Z,18.40
2023-04-30T18:22:59.528Z,18.40
2023-04-30T18:25:27.587Z,18.40
2023-04-30T18:27:56.773Z,18.30
2023-04-30T18:30:24.682Z,18.40
2023-04-30T18:32:52.583Z,18.40
2023-04-30T18:35:20.517Z,18.30
2023-04-30T18:37:49.139Z,18.30
2023-04-30T18:40:17.004Z,18.30
2023-04-30T18:42:44.904Z,18.30
2023-04-30T18:45:15.419Z,18.20
2023-04-30T18:47:43.421Z,18.30
2023-04-30T18:50:16.883Z,18.20
2023-04-30T18:52:45.371Z,18.20
2023-04-30T18:55:14.397Z,18.20
2023-04-30T18:57:43.331Z,18.20
2023-04-30T19:00:14.909Z,18.20
2023-04-30T19:02:43.965Z,18.10
2023-04-30T19:05:12.395Z,18.10
2023-04-30T19:07:40.868Z,18.10
2023-04-30T19:10:09.655Z,18.00
2023-04-30T19:12:37.525Z,18.00
2023-04-30T19:15:07.968Z,18.00
2023-04-30T19:17:37.166Z,18.00
2023-04-30T19:20:05.787Z,17.90
2023-04-30T19:22:33.998Z,17.90
2023-04-30T19:25:01.818Z,17.90
2023-04-30T19:27:29.714Z,17.80
2023-04-30T19:29:58.380Z,17.80
2023-04-30T19:32:26.889Z,17.80
2023-04-30T19:34:56.426Z,17.70
2023-04-30T19:37:25.055Z,17.70
2023-04-30T19:39:53.063Z,17.70
2023-04-30T19:42:21.013Z,17.60
2023-04-30T19:44:52.130Z,17.60
2023-04-30T19:47:20.613Z,17.50
2023-04-30T19:49:48.539Z,17.50
2023-04-30T19:52:18.103Z,17.50
2023-04-30T19:54:48.708Z,17.50
2023-04-30T19:57:16.972Z,17.40
2023-04-30T19:59:47.117Z,17.40
2023-04-30T20:02:15.322Z,17.40
2023-04-30T20:04:43.590Z,17.30
2023-04-30T20:07:11.988Z,17.30
2023-04-30T20:09:41.262Z,17.20
2023-04-30T20:12:09.663Z,17.20
2023-04-30T20:14:37.614Z,17.20
2023-04-30T20:17:06.492Z,17.10
2023-04-30T20:19:34.662Z,17.10
2023-04-30T20:22:03.641Z,17.10
2023-04-30T20:24:31.521Z,17.00
2023-04-30T20:27:00.969Z,17.00
2023-04-30T20:29:29.330Z,17.00
2023-04-30T20:31:58.294Z,16.90
2023-04-30T20:34:26.241Z,16.90
2023-04-30T20:36:54.176Z,16.80
2023-04-30T20:39:22.350Z,16.80
2023-04-30T20:41:52.107Z,16.80
2023-04-30T20:44:21.290Z,16.70
2023-04-30T20:46:49.207Z,16.70
2023-04-30T20:49:17.104Z,16.60
2023-04-30T20:51:44.925Z,16.60
2023-04-30T20:54:13.018Z,16.60
2023-04-30T20:56:42.367Z,16.60
2023-04-30T20:59:10.500Z,16.50
2023-04-30T21:01:40.474Z,16.50
2023-04-30T21:04:09.345Z,16.50
2023-04-30T21:06:37.316Z,16.40
2023-04-30T21:09:06.189Z,16.40
2023-04-30T21:11:34.794Z,16.30
2023-04-30T21:14:02.651Z,16.30
2023-04-30T21:16:32.363Z,16.30
2023-04-30T21:19:02.042Z,16.30
2023-04-30T21:21:30.420Z,16.20
2023-04-30T21:24:00.936Z,16.20
2023-04-30T21:26:29.186Z,16.20
2023-04-30T21:28:57.070Z,16.10
2023-04-30T21:31:24.989Z,16.10
2023-04-30T21:33:52.894Z,16.10
2023-04-30T21:36:22.215Z,16.00
2023-04-30T21:38:50.135Z,16.00
2023-04-30T21:41:18.548Z,16.00
2023-04-30T21:43:46.453Z,15.90
2023-04-30T21:46:14.592Z,15.90
2023-04-30T21:48:42.550Z,15.90
2023-04-30T21:51:14.815Z,15.80
2023-04-30T21:53:46.238Z,15.80
2023-04-30T21:56:14.780Z,15.70
2023-04-30T21:58:42.918Z,15.70
2023-04-30T22:01:10.831Z,15.70
2023-04-30T22:03:39.396Z,15.70
2023-04-30T22:06:08.053Z,15.60
2023-04-30T22:08:35.951Z,15.60
2023-04-30T22:11:05.180Z,15.60
2023-04-30T22:13:33.154Z,15.50
2023-04-30T22:16:01.120Z,15.50
2023-04-30T22:18:29.336Z,15.50
2023-04-30T22:20:57.361Z,15.40
2023-04-30T22:23:25.219Z,15.40
2023-04-30T22:25:53.296Z,15.40
2023-04-30T22:28:23.443Z,15.30
2023-04-30T22:30:57.866Z,15.30
2023-04-30T22:33:25.848Z,15.30
2023-04-30T22:35:53.688Z,15.20
2023-04-30T22:38:21.983Z,15.20
2023-04-30T22:40:49.910Z,15.20
2023-04-30T22:43:18.028Z,15.20
2023-04-30T22:45:47.697Z,15.10
2023-04-30T22:48:15.821Z,15.10
2023-04-30T22:50:43.898Z,15.10
2023-04-30T22:53:13.234Z,15.10
2023-04-30T22:55:41.243Z,15.00
2023-04-30T22:58:09.067Z,15.00
2023-04-30T23:00:37.299Z,15.00
2023-04-30T23:03:06.585Z,14.90
2023-04-30T23:05:34.566Z,14.90
2023-04-30T23:08:03.212Z,14.90
2023-04-30T23:10:31.330Z,14.90
2023-04-30T23:12:59.249Z,14.80
2023-04-30T23:15:27.759Z,14.80
2023-04-30T23:17:56.660Z,14.80
2023-04-30T23:20:25.979Z,14.80
2023-04-30T23:22:53.877Z,14.80
2023-04-30T23:25:22.315Z,14.70
2023-04-30T23:27:50.114Z,14.70
2023-04-30T23:30:18.235Z,14.70
2023-04-30T23:32:46.457Z,14.60
2023-04-30T23:35:14.554Z,14.60
2023-04-30T23:37:43.705Z,14.60
2023-04-30T23:40:12.270Z,14.60
2023-04-30T23:42:40.084Z,14.50
2023-04-30T23:45:10.113Z,14.50
2023-04-30T23:47:38.357Z,14.50
2023-04-30T23:50:07.695Z,14.50
2023-04-30T23:52:36.753Z,14.50
2023-04-30T23:55:07.320Z,14.40
2023-04-30T23:57:35.572Z,14.40
